This is the latest recevied weather packets stored in our database for station/object CQ0XVC-11. If no packets are shown the sender has not sent any weather packets the latest 1 day(s).
| Time | Temp. | Humidity | Pressure | Rain* | Wind** | Luminosity | Snow |
|---|---|---|---|---|---|---|---|
| 1778054685 | 12.78° C | 62% | 1001.5 hPa | 0 mm | - | - | - |
| 1778054383 | 12.22° C | 66% | 1001.5 hPa | 0 mm | - | - | - |
| 1778054081 | 12.78° C | 62% | 1001.4 hPa | 0 mm | - | - | - |
| 1778053779 | 12.22° C | 65% | 1001.3 hPa | 0 mm | - | - | - |
| 1778053476 | 12.22° C | 62% | 1001.3 hPa | 0 mm | - | - | - |
| 1778052570 | 12.78° C | 62% | 1001.5 hPa | 0 mm | - | - | - |
| 1778051966 | 13.89° C | 59% | 1001.5 hPa | 0 mm | - | - | - |
| 1778051717 | 14.44° C | 66% | 1001.5 hPa | 0 mm | - | - | - |
| 1778051664 | 14.44° C | 66% | 1001.5 hPa | 0 mm | - | - | - |
| 1778051361 | 13.89° C | 67% | 1001.6 hPa | 0 mm | - | - | - |
| 1778051059 | 13.33° C | 68% | 1001.6 hPa | 0 mm | - | - | - |
| 1778050757 | 12.78° C | 69% | 1001.5 hPa | 0 mm | - | - | - |
| 1778050494 | 12.22° C | 69% | 1001.6 hPa | 0 mm | - | - | - |
| 1778050153 | 12.22° C | 69% | 1001.5 hPa | 0 mm | - | - | - |
| 1778049851 | 11.67° C | 71% | 1001.7 hPa | 0 mm | - | - | - |
| 1778048642 | 9.44° C | 78% | 1001.6 hPa | 0 mm | - | - | - |
| 1778048340 | 8.89° C | 78% | 1001.4 hPa | 0 mm | - | - | - |
| 1778048072 | 8.33° C | 80% | 1001.5 hPa | 0 mm | - | - | - |
| 1778048037 | 8.33° C | 80% | 1001.5 hPa | 0 mm | - | - | - |
| 1778047777 | 7.78° C | 80% | 1001.4 hPa | 0 mm | - | - | - |
| 1778047164 | 6.67° C | 80% | 1001.4 hPa | 0 mm | - | - | - |
| 1778047131 | 6.67° C | 80% | 1001.4 hPa | 0 mm | - | - | - |
| 1778046828 | 6.67° C | 80% | 1001.5 hPa | 0 mm | - | - | - |
| 1778046527 | 6.67° C | 80% | 1001.4 hPa | 0 mm | - | - | - |
| 1778046224 | 6.67° C | 80% | 1001.4 hPa | 0 mm | - | - | - |
* Rain since midnight (hover to see other rain measurements)
** Current wind speed in m/s (hover to see current wind gust speed)